createdAt,value
2023-05-25T00:00:32.633Z,52040.40
2023-05-25T00:03:04.910Z,52053.66
2023-05-25T00:05:36.944Z,52066.93
2023-05-25T00:08:08.916Z,52052.05
2023-05-25T00:10:41.284Z,52042.01
2023-05-25T00:13:13.361Z,52041.61
2023-05-25T00:15:45.598Z,52053.66
2023-05-25T00:18:18.817Z,52057.28
2023-05-25T00:20:54.445Z,52041.61
2023-05-25T00:23:26.412Z,52054.47
2023-05-25T00:25:58.382Z,52033.17
2023-05-25T00:28:30.455Z,52057.68
2023-05-25T00:31:02.537Z,52066.52
2023-05-25T00:33:34.623Z,52050.45
2023-05-25T00:36:09.036Z,52066.52
2023-05-25T00:38:41.729Z,52066.12
2023-05-25T00:41:13.757Z,52053.66
2023-05-25T00:43:45.743Z,52040.00
2023-05-25T00:46:17.944Z,52067.73
2023-05-25T00:48:51.501Z,52064.51
2023-05-25T00:51:23.932Z,52052.05
2023-05-25T00:53:55.925Z,52052.86
2023-05-25T00:56:32.813Z,52060.89
2023-05-25T00:59:07.805Z,52075.36
2023-05-25T01:01:41.240Z,52042.81
2023-05-25T01:04:15.343Z,52052.46
2023-05-25T01:06:48.541Z,52051.65
2023-05-25T01:09:21.221Z,52061.70
2023-05-25T01:11:54.557Z,52064.51
2023-05-25T01:14:26.939Z,52058.08
2023-05-25T01:17:03.581Z,52059.29
2023-05-25T01:19:36.514Z,52050.85
2023-05-25T01:22:13.897Z,52060.49
2023-05-25T01:24:50.486Z,52067.73
2023-05-25T01:27:31.011Z,52052.46
2023-05-25T01:30:03.275Z,52060.49
2023-05-25T01:32:35.644Z,52063.71
2023-05-25T01:35:09.156Z,52057.68
2023-05-25T01:37:45.576Z,52063.31
2023-05-25T01:40:18.636Z,52056.48
2023-05-25T01:42:50.620Z,52064.51
2023-05-25T01:45:22.755Z,52066.52
2023-05-25T01:48:02.866Z,52060.89
2023-05-25T01:50:38.162Z,52061.70
2023-05-25T01:53:14.229Z,52074.96
2023-05-25T01:55:49.652Z,52059.69
2023-05-25T01:58:21.579Z,52054.46
2023-05-25T02:00:53.887Z,52073.35
2023-05-25T02:03:25.842Z,52073.75
2023-05-25T02:05:58.329Z,52068.93
2023-05-25T02:08:30.432Z,52068.93
2023-05-25T02:11:06.174Z,52077.77
2023-05-25T02:13:38.149Z,52068.13
2023-05-25T02:16:10.993Z,52060.49
2023-05-25T02:18:48.511Z,52048.84
2023-05-25T02:21:21.175Z,52079.78
2023-05-25T02:23:54.179Z,52072.95
2023-05-25T02:26:26.564Z,52046.02
2023-05-25T02:28:58.695Z,52079.78
2023-05-25T02:31:30.983Z,52083.00
2023-05-25T02:34:03.554Z,52053.66
2023-05-25T02:36:36.554Z,52061.70
2023-05-25T02:39:09.674Z,52077.77
2023-05-25T02:41:42.879Z,52091.44
2023-05-25T02:44:14.880Z,52072.55
2023-05-25T02:46:47.601Z,52079.78
2023-05-25T02:49:19.947Z,52086.61
2023-05-25T02:51:52.881Z,52072.95
2023-05-25T02:54:24.890Z,52063.30
2023-05-25T02:56:58.096Z,52056.88
2023-05-25T02:59:30.378Z,52070.94
2023-05-25T03:02:02.925Z,52064.11
2023-05-25T03:04:38.388Z,52069.33
2023-05-25T03:07:10.408Z,52060.90
2023-05-25T03:09:43.177Z,52056.88
2023-05-25T03:12:15.400Z,52054.06
2023-05-25T03:14:47.431Z,52068.53
2023-05-25T03:17:20.197Z,52061.30
2023-05-25T03:19:53.671Z,52069.74
2023-05-25T03:22:26.028Z,52054.06
2023-05-25T03:25:00.135Z,52063.71
2023-05-25T03:27:32.620Z,52069.74
2023-05-25T03:30:04.898Z,52059.29
2023-05-25T03:32:37.138Z,52061.70
2023-05-25T03:35:10.612Z,52073.35
2023-05-25T03:37:42.935Z,52057.28
2023-05-25T03:40:15.309Z,52079.38
2023-05-25T03:42:47.431Z,52050.45
2023-05-25T03:45:19.627Z,52048.84
2023-05-25T03:47:51.585Z,52064.51
2023-05-25T03:50:23.723Z,52061.30
2023-05-25T03:52:55.708Z,52063.71
2023-05-25T03:55:29.048Z,52055.67
2023-05-25T03:58:00.896Z,52070.13
2023-05-25T04:00:32.890Z,52068.13
2023-05-25T04:03:04.944Z,52056.07
2023-05-25T04:05:37.158Z,52058.09
2023-05-25T04:08:12.165Z,52054.87
2023-05-25T04:10:44.466Z,52064.51
2023-05-25T04:13:16.466Z,52056.47
2023-05-25T04:15:48.341Z,52052.05
2023-05-25T04:18:23.982Z,52055.67
2023-05-25T04:20:57.671Z,52055.27
2023-05-25T04:23:29.941Z,52042.81
2023-05-25T04:26:01.908Z,52039.60
2023-05-25T04:28:33.907Z,52040.40
2023-05-25T04:31:27.492Z,52040.00
2023-05-25T04:34:21.750Z,52035.18
2023-05-25T04:36:59.033Z,52043.21
2023-05-25T04:39:31.291Z,52050.45
2023-05-25T04:42:04.964Z,52050.05
2023-05-25T04:44:40.352Z,52040.00
2023-05-25T04:47:13.942Z,52046.83
2023-05-25T04:49:46.276Z,52052.05
2023-05-25T04:52:18.350Z,52036.38
2023-05-25T04:54:52.275Z,52049.24
2023-05-25T04:57:28.321Z,52029.55
2023-05-25T05:00:01.535Z,52031.56
2023-05-25T05:02:34.944Z,52030.35
2023-05-25T05:05:07.951Z,52051.25
2023-05-25T05:07:39.989Z,52025.53
2023-05-25T05:10:13.903Z,52030.36
2023-05-25T05:12:50.671Z,52020.31
2023-05-25T05:15:23.199Z,52010.66
2023-05-25T05:17:55.960Z,52013.48
2023-05-25T05:20:29.408Z,52028.75
2023-05-25T05:23:02.785Z,51999.82
2023-05-25T05:25:35.340Z,52003.03
2023-05-25T05:28:08.473Z,52000.62
2023-05-25T05:30:47.281Z,51999.41
2023-05-25T05:33:19.653Z,51990.98
2023-05-25T05:35:52.720Z,51990.97
2023-05-25T05:38:26.979Z,51968.48
2023-05-25T05:40:59.153Z,51978.92
2023-05-25T05:43:32.249Z,51991.38
2023-05-25T05:46:04.438Z,51970.48
2023-05-25T05:48:36.419Z,51966.06
2023-05-25T05:51:08.803Z,51952.40
2023-05-25T05:53:41.124Z,51940.74
2023-05-25T05:56:19.909Z,51933.51
2023-05-25T05:58:54.429Z,51937.93
2023-05-25T06:01:27.297Z,51925.88
2023-05-25T06:04:00.354Z,51937.93
2023-05-25T06:06:35.013Z,51920.66
2023-05-25T06:09:07.639Z,51905.39
2023-05-25T06:11:40.808Z,51918.64
2023-05-25T06:14:13.382Z,51913.42
2023-05-25T06:16:46.896Z,51907.79
2023-05-25T06:19:19.660Z,51900.16
2023-05-25T06:21:53.094Z,51901.37
2023-05-25T06:24:26.660Z,51902.97
2023-05-25T06:26:58.758Z,51896.55
2023-05-25T06:29:31.068Z,51894.54
2023-05-25T06:32:04.440Z,51870.83
2023-05-25T06:34:38.170Z,51875.65
2023-05-25T06:37:11.083Z,51871.63
2023-05-25T06:39:43.726Z,51880.88
2023-05-25T06:42:16.460Z,51868.41
2023-05-25T06:44:56.983Z,51872.03
2023-05-25T06:47:31.381Z,51870.02
2023-05-25T06:50:03.762Z,51867.61
2023-05-25T06:52:36.624Z,51873.24
2023-05-25T06:55:10.509Z,51858.77
2023-05-25T06:57:43.964Z,51857.57
2023-05-25T07:00:18.510Z,51857.57
2023-05-25T07:02:50.841Z,51860.78
2023-05-25T07:05:23.752Z,51853.55
2023-05-25T07:07:56.346Z,51860.38
2023-05-25T07:10:29.119Z,51843.11
2023-05-25T07:13:01.151Z,51841.90
2023-05-25T07:15:33.514Z,51828.23
2023-05-25T07:18:05.943Z,51821.00
2023-05-25T07:20:38.481Z,51818.99
2023-05-25T07:23:11.320Z,51830.65
2023-05-25T07:25:43.742Z,51814.17
2023-05-25T07:28:16.122Z,51806.54
2023-05-25T07:30:48.235Z,51818.59
2023-05-25T07:33:20.382Z,51808.95
2023-05-25T07:35:52.726Z,51812.57
2023-05-25T07:38:24.821Z,51785.64
2023-05-25T07:40:57.597Z,51803.32
2023-05-25T07:43:29.877Z,51787.25
2023-05-25T07:46:02.732Z,51798.90
2023-05-25T07:48:34.814Z,51777.21
2023-05-25T07:51:07.335Z,51770.78
2023-05-25T07:53:39.558Z,51767.16
2023-05-25T07:56:11.978Z,51761.54
2023-05-25T07:58:44.147Z,51759.93
2023-05-25T08:01:16.477Z,51766.76
2023-05-25T08:03:50.147Z,51765.95
2023-05-25T08:06:22.644Z,51757.92
2023-05-25T08:08:55.069Z,51747.47
2023-05-25T08:11:28.377Z,51748.27
2023-05-25T08:14:00.790Z,51748.27
2023-05-25T08:16:32.997Z,51744.66
2023-05-25T08:19:05.013Z,51733.01
2023-05-25T08:21:37.960Z,51747.88
2023-05-25T08:24:10.212Z,51748.68
2023-05-25T08:26:54.372Z,51747.07
2023-05-25T08:29:27.823Z,51752.29
2023-05-25T08:32:00.152Z,51749.48
2023-05-25T08:34:32.415Z,51744.66
2023-05-25T08:37:04.751Z,51767.56
2023-05-25T08:39:37.698Z,51771.98
2023-05-25T08:42:10.679Z,51778.81
2023-05-25T08:44:43.145Z,51768.77
2023-05-25T08:47:15.544Z,51773.99
2023-05-25T08:49:48.306Z,51765.15
2023-05-25T08:52:22.970Z,51761.54
2023-05-25T08:54:55.774Z,51779.61
2023-05-25T08:57:30.272Z,51768.77
2023-05-25T09:00:07.543Z,51794.88
2023-05-25T09:02:43.847Z,51789.66
2023-05-25T09:05:16.222Z,51797.70
2023-05-25T09:07:55.030Z,51830.65
2023-05-25T09:10:28.057Z,51822.21
2023-05-25T09:15:32.429Z,51841.49
2023-05-25T09:18:05.386Z,51841.89
2023-05-25T09:20:37.799Z,51841.09
2023-05-25T09:23:10.467Z,51851.14
2023-05-25T09:25:42.500Z,51854.35
2023-05-25T09:28:26.440Z,51832.65
2023-05-25T09:30:59.856Z,51839.49
2023-05-25T09:33:31.910Z,51835.87
2023-05-25T09:36:03.894Z,51846.32
2023-05-25T09:38:36.004Z,51829.84
2023-05-25T09:41:08.915Z,51839.09
2023-05-25T09:43:45.000Z,51839.08
2023-05-25T09:46:19.772Z,51837.47
2023-05-25T09:48:53.696Z,51831.45
2023-05-25T09:51:26.241Z,51830.24
2023-05-25T09:53:58.216Z,51833.05
2023-05-25T09:56:31.721Z,51851.14
2023-05-25T09:59:04.312Z,51843.91
2023-05-25T10:01:38.367Z,51839.08
2023-05-25T10:04:10.934Z,51840.70
2023-05-25T10:06:43.417Z,51839.08
2023-05-25T10:09:16.969Z,51837.88
2023-05-25T10:11:49.630Z,51835.87
2023-05-25T10:14:28.040Z,51842.70
2023-05-25T10:17:02.744Z,51827.43
2023-05-25T10:19:41.733Z,51831.45
2023-05-25T10:22:17.707Z,51838.28
2023-05-25T10:25:02.198Z,51839.09
2023-05-25T10:27:37.902Z,51830.24
2023-05-25T10:30:11.990Z,51836.27
2023-05-25T10:32:44.809Z,51841.49
2023-05-25T10:35:21.161Z,51839.89
2023-05-25T10:37:55.071Z,51840.70
2023-05-25T10:40:27.203Z,51851.14
2023-05-25T10:42:59.662Z,51843.90
2023-05-25T10:45:31.805Z,51833.46
2023-05-25T10:48:05.091Z,51859.98
2023-05-25T10:50:39.197Z,51849.93
2023-05-25T10:53:14.528Z,51865.20
2023-05-25T10:55:51.158Z,51854.76
2023-05-25T10:58:24.265Z,51848.73
2023-05-25T11:01:02.493Z,51857.17
2023-05-25T11:03:57.262Z,51844.31
2023-05-25T11:06:59.823Z,51867.62
2023-05-25T11:09:32.551Z,51862.39
2023-05-25T11:12:11.020Z,51858.37
2023-05-25T11:14:44.876Z,51858.37
2023-05-25T11:17:17.290Z,51865.60
2023-05-25T11:19:51.928Z,51868.41
2023-05-25T11:22:25.425Z,51857.16
2023-05-25T11:24:57.492Z,51869.22
2023-05-25T11:27:30.695Z,51866.41
2023-05-25T11:30:03.133Z,51863.20
2023-05-25T11:32:40.043Z,51865.20
2023-05-25T11:35:12.836Z,51865.20
2023-05-25T11:37:46.063Z,51857.97
2023-05-25T11:40:18.565Z,51868.42
2023-05-25T11:42:51.279Z,51886.10
2023-05-25T11:45:26.648Z,51881.27
2023-05-25T11:47:58.791Z,51880.88
2023-05-25T11:50:31.409Z,51886.10
2023-05-25T11:53:06.296Z,51890.92
2023-05-25T11:55:41.266Z,51897.75
2023-05-25T11:58:13.400Z,51893.33
2023-05-25T12:00:45.787Z,51892.13
2023-05-25T12:06:30.341Z,51888.11
2023-05-25T12:09:04.401Z,51888.91
2023-05-25T12:11:38.739Z,51896.95
2023-05-25T12:14:10.931Z,51902.57
2023-05-25T12:16:43.108Z,51907.80
2023-05-25T12:19:15.144Z,51903.78
2023-05-25T12:21:48.127Z,51909.80
2023-05-25T12:24:20.679Z,51915.83
2023-05-25T12:26:57.911Z,51898.55
2023-05-25T12:29:29.940Z,51896.54
2023-05-25T12:32:07.092Z,51898.96
2023-05-25T12:34:39.783Z,51915.03
2023-05-25T12:37:20.615Z,51904.18
2023-05-25T12:39:52.638Z,51902.57
2023-05-25T12:42:26.790Z,51893.33
2023-05-25T12:45:01.951Z,51896.95
2023-05-25T12:47:34.262Z,51896.54
2023-05-25T12:50:16.998Z,51888.11
2023-05-25T12:52:49.680Z,51872.43
2023-05-25T12:55:27.432Z,51878.46
2023-05-25T12:58:00.434Z,51898.55
2023-05-25T13:00:34.391Z,51883.69
2023-05-25T13:03:07.976Z,51890.52
2023-05-25T13:05:40.906Z,51891.73
2023-05-25T13:08:13.019Z,51868.02
2023-05-25T13:10:48.923Z,51868.42
2023-05-25T13:13:21.145Z,51874.84
2023-05-25T13:15:53.613Z,51864.00
2023-05-25T13:18:25.561Z,51853.15
2023-05-25T13:20:58.159Z,51854.76
2023-05-25T13:23:30.566Z,51847.12
2023-05-25T13:26:03.517Z,51822.61
2023-05-25T13:28:35.879Z,51800.91
2023-05-25T13:31:08.260Z,51791.67
2023-05-25T13:33:40.459Z,51783.63
2023-05-25T13:36:13.056Z,51756.71
2023-05-25T13:38:45.496Z,51737.02
2023-05-25T13:41:18.666Z,51737.82
2023-05-25T13:43:51.107Z,51710.91
2023-05-25T13:46:34.226Z,51700.86
2023-05-25T13:49:07.561Z,51677.96
2023-05-25T13:51:42.230Z,51706.89
2023-05-25T13:54:15.469Z,51693.23
2023-05-25T13:56:47.839Z,51692.42
2023-05-25T13:59:19.933Z,51699.25
2023-05-25T14:01:53.610Z,51712.91
2023-05-25T14:04:27.033Z,51710.51
2023-05-25T14:06:59.533Z,51723.76
2023-05-25T14:09:32.066Z,51728.59
2023-05-25T14:15:15.766Z,51735.42
2023-05-25T14:17:47.948Z,51737.02
2023-05-25T14:20:25.945Z,51737.02
2023-05-25T14:22:58.246Z,51761.13
2023-05-25T14:25:30.677Z,51758.72
2023-05-25T14:28:03.019Z,51775.20
2023-05-25T14:30:34.994Z,51771.98
2023-05-25T14:33:08.352Z,51781.62
2023-05-25T14:35:40.776Z,51784.03
2023-05-25T14:38:12.773Z,51796.49
2023-05-25T14:40:44.992Z,51806.94
2023-05-25T14:43:16.974Z,51792.07
2023-05-25T14:45:49.102Z,51816.18
2023-05-25T14:48:25.554Z,51818.59
2023-05-25T14:50:59.098Z,51823.41
2023-05-25T14:53:31.578Z,51823.81
2023-05-25T14:56:04.576Z,51814.17
2023-05-25T14:58:36.716Z,51828.23
2023-05-25T15:01:08.853Z,51822.21
2023-05-25T15:03:40.966Z,51836.68
2023-05-25T15:06:14.639Z,51833.46
2023-05-25T15:08:50.738Z,51835.07
2023-05-25T15:11:24.344Z,51848.73
2023-05-25T15:13:58.153Z,51844.30
2023-05-25T15:16:30.534Z,51843.50
2023-05-25T15:19:02.586Z,51832.25
2023-05-25T15:21:34.687Z,51844.30
2023-05-25T15:24:07.082Z,51839.89
2023-05-25T15:26:39.513Z,51857.57
2023-05-25T15:29:11.558Z,51855.96
2023-05-25T15:31:44.341Z,51868.41
2023-05-25T15:34:17.301Z,51864.00
2023-05-25T15:36:49.296Z,51885.29
2023-05-25T15:39:21.540Z,51870.43
2023-05-25T15:41:53.505Z,51871.63
2023-05-25T15:44:25.779Z,51873.24
2023-05-25T15:46:58.349Z,51872.04
2023-05-25T15:49:30.291Z,51878.06
2023-05-25T15:52:02.367Z,51882.48
2023-05-25T15:54:34.303Z,51880.07
2023-05-25T15:57:07.127Z,51880.47
2023-05-25T15:59:39.096Z,51896.54
2023-05-25T16:02:11.187Z,51894.94
2023-05-25T16:04:43.388Z,51903.77
2023-05-25T16:07:15.905Z,51890.12
2023-05-25T16:09:48.217Z,51893.73
2023-05-25T16:12:24.825Z,51880.87
2023-05-25T16:14:57.109Z,51882.48
2023-05-25T16:17:30.231Z,51893.73
2023-05-25T16:20:02.458Z,51890.52
2023-05-25T16:22:34.594Z,51896.54
2023-05-25T16:25:07.924Z,51885.29
2023-05-25T16:27:40.212Z,51883.68
2023-05-25T16:30:14.451Z,51892.13
2023-05-25T16:32:46.598Z,51888.51
2023-05-25T16:35:18.657Z,51894.13
2023-05-25T16:37:50.672Z,51896.14
2023-05-25T16:40:23.195Z,51906.99
2023-05-25T16:42:55.075Z,51895.34
2023-05-25T16:45:27.348Z,51898.96
2023-05-25T16:47:59.546Z,51894.13
2023-05-25T16:50:31.752Z,51909.00
2023-05-25T16:53:03.887Z,51915.84
2023-05-25T16:55:36.173Z,51909.80
2023-05-25T16:58:08.320Z,51921.86
2023-05-25T17:00:41.143Z,51913.43
2023-05-25T17:03:13.124Z,51909.80
2023-05-25T17:05:46.081Z,51900.96
2023-05-25T17:08:18.334Z,51920.25
2023-05-25T17:10:51.567Z,51920.25
2023-05-25T17:13:23.846Z,51929.90
2023-05-25T17:15:55.936Z,51932.71
2023-05-25T17:18:29.077Z,51935.93
2023-05-25T17:21:02.305Z,51931.91
2023-05-25T17:23:34.437Z,51920.25
2023-05-25T17:26:06.867Z,51933.11
2023-05-25T17:28:38.863Z,51933.91
2023-05-25T17:31:10.913Z,51934.32
2023-05-25T17:33:43.090Z,51939.54
2023-05-25T17:36:15.160Z,51925.07
2023-05-25T17:38:47.128Z,51941.15
2023-05-25T17:41:19.486Z,51938.34
2023-05-25T17:43:51.960Z,51932.71
2023-05-25T17:46:24.038Z,51940.74
2023-05-25T17:48:57.601Z,51942.36
2023-05-25T17:51:30.412Z,51933.52
2023-05-25T17:54:02.755Z,51942.75
2023-05-25T17:56:34.959Z,51933.11
2023-05-25T17:59:07.976Z,51946.77
2023-05-25T18:01:41.187Z,51950.79
2023-05-25T18:04:14.029Z,51937.13
2023-05-25T18:06:46.299Z,51954.41
2023-05-25T18:09:18.501Z,51942.35
2023-05-25T18:11:53.041Z,51951.60
2023-05-25T18:14:27.193Z,51959.63
2023-05-25T18:16:59.246Z,51945.97
2023-05-25T18:19:31.620Z,51945.97
2023-05-25T18:22:03.856Z,51940.34
2023-05-25T18:24:36.594Z,51945.16
2023-05-25T18:27:09.087Z,51952.40
2023-05-25T18:29:41.055Z,51956.02
2023-05-25T18:32:13.807Z,51947.58
2023-05-25T18:34:46.362Z,51959.23
2023-05-25T18:37:18.393Z,51961.24
2023-05-25T18:39:50.450Z,51959.63
2023-05-25T18:42:22.403Z,51962.04
2023-05-25T18:44:54.451Z,51949.59
2023-05-25T18:47:26.570Z,51954.81
2023-05-25T18:49:58.785Z,51960.84
2023-05-25T18:52:30.824Z,51970.08
2023-05-25T18:55:03.173Z,51965.66
2023-05-25T18:57:35.372Z,51970.08
2023-05-25T19:00:09.610Z,51966.46
2023-05-25T19:02:41.921Z,51973.70
2023-05-25T19:05:15.466Z,51952.00
2023-05-25T19:07:58.361Z,51964.86
2023-05-25T19:10:32.004Z,51954.41
2023-05-25T19:13:04.117Z,51977.31
2023-05-25T19:15:36.107Z,51961.64
2023-05-25T19:18:08.552Z,51981.33
2023-05-25T19:20:40.735Z,51968.47
2023-05-25T19:23:12.992Z,51988.16
2023-05-25T19:25:45.508Z,51966.06
2023-05-25T19:28:18.149Z,51980.93
2023-05-25T19:30:50.331Z,51984.55
2023-05-25T19:33:22.415Z,51969.27
2023-05-25T19:35:54.542Z,51966.46
2023-05-25T19:38:34.224Z,51974.90
2023-05-25T19:41:12.838Z,51974.50
2023-05-25T19:43:44.882Z,51980.53
2023-05-25T19:46:16.924Z,51976.11
2023-05-25T19:48:49.152Z,51986.55
2023-05-25T19:51:21.992Z,51984.54
2023-05-25T19:53:55.438Z,51985.75
2023-05-25T19:56:27.850Z,52005.84
2023-05-25T19:59:00.125Z,51974.50
2023-05-25T20:01:32.153Z,52004.64
2023-05-25T20:04:04.517Z,52000.22
2023-05-25T20:06:37.672Z,51997.00
2023-05-25T20:09:12.699Z,51990.98
2023-05-25T20:11:45.132Z,51999.01
2023-05-25T20:15:33.552Z,51969.68
2023-05-25T20:18:06.059Z,51984.95
2023-05-25T20:20:38.152Z,51992.18
2023-05-25T20:23:10.819Z,51998.61
2023-05-25T20:25:43.162Z,51997.41
2023-05-25T20:28:16.106Z,51996.20
2023-05-25T20:30:48.424Z,52015.89
2023-05-25T20:33:20.495Z,52001.02
2023-05-25T20:35:52.704Z,52004.24
2023-05-25T20:38:24.749Z,52010.66
2023-05-25T20:40:56.855Z,52000.22
2023-05-25T20:43:28.896Z,52006.24
2023-05-25T20:46:00.969Z,52012.27
2023-05-25T20:48:32.983Z,52017.10
2023-05-25T20:51:05.117Z,52022.72
2023-05-25T20:53:37.504Z,52008.66
2023-05-25T20:56:09.692Z,52013.07
2023-05-25T20:58:42.381Z,52011.07
2023-05-25T21:01:14.487Z,52013.07
2023-05-25T21:03:46.834Z,52015.89
2023-05-25T21:06:19.352Z,52012.68
2023-05-25T21:08:52.197Z,52013.48
2023-05-25T21:11:26.328Z,52015.49
2023-05-25T21:13:58.513Z,52012.27
2023-05-25T21:16:30.598Z,52029.15
2023-05-25T21:19:02.649Z,52011.46
2023-05-25T21:21:35.274Z,52017.90
2023-05-25T21:24:07.654Z,52018.70
2023-05-25T21:26:39.814Z,52020.31
2023-05-25T21:29:12.256Z,52033.57
2023-05-25T21:31:44.539Z,52029.95
2023-05-25T21:34:16.747Z,52034.38
2023-05-25T21:36:49.433Z,52033.97
2023-05-25T21:39:22.933Z,52029.55
2023-05-25T21:41:55.086Z,52033.98
2023-05-25T21:44:27.552Z,52034.38
2023-05-25T21:46:59.615Z,52031.16
2023-05-25T21:49:31.881Z,52025.93
2023-05-25T21:52:03.962Z,52033.57
2023-05-25T21:54:36.145Z,52026.34
2023-05-25T21:57:08.703Z,52028.75
2023-05-25T21:59:41.415Z,52045.63
2023-05-25T22:02:13.410Z,52042.41
2023-05-25T22:04:45.578Z,52040.80
2023-05-25T22:07:17.562Z,52021.11
2023-05-25T22:09:50.051Z,52027.95
2023-05-25T22:12:22.761Z,52015.89
2023-05-25T22:14:54.916Z,52029.95
2023-05-25T22:17:26.843Z,52027.14
2023-05-25T22:20:07.233Z,52024.33
2023-05-25T22:22:41.183Z,52027.14
2023-05-25T22:25:13.546Z,52037.99
2023-05-25T22:27:45.760Z,52029.15
2023-05-25T22:30:18.120Z,52029.95
2023-05-25T22:32:50.465Z,52037.99
2023-05-25T22:35:22.704Z,52042.41
2023-05-25T22:37:54.907Z,52056.88
2023-05-25T22:40:26.948Z,52072.55
2023-05-25T22:42:59.006Z,52043.62
2023-05-25T22:45:31.615Z,52073.36
2023-05-25T22:48:04.400Z,52065.72
2023-05-25T22:50:36.545Z,52055.67
2023-05-25T22:53:08.636Z,52062.50
2023-05-25T22:55:40.630Z,52061.70
2023-05-25T22:58:12.923Z,52073.35
2023-05-25T23:00:45.058Z,52072.15
2023-05-25T23:03:17.334Z,52070.95
2023-05-25T23:05:49.771Z,52057.28
2023-05-25T23:08:21.731Z,52066.12
2023-05-25T23:10:53.767Z,52063.30
2023-05-25T23:13:28.148Z,52083.00
2023-05-25T23:16:00.215Z,52079.38
2023-05-25T23:18:32.594Z,52068.93
2023-05-25T23:21:04.819Z,52086.21
2023-05-25T23:23:37.082Z,52083.00
2023-05-25T23:26:09.478Z,52083.00
2023-05-25T23:28:41.766Z,52068.93
2023-05-25T23:31:14.423Z,52074.16
2023-05-25T23:33:49.419Z,52073.76
2023-05-25T23:36:26.668Z,52088.22
2023-05-25T23:38:58.745Z,52085.01
2023-05-25T23:41:30.930Z,52093.04
2023-05-25T23:44:03.533Z,52087.82
2023-05-25T23:46:36.009Z,52076.16
2023-05-25T23:49:08.425Z,52088.63
2023-05-25T23:51:40.434Z,52093.04
2023-05-25T23:54:12.725Z,52078.98
2023-05-25T23:56:44.758Z,52095.05
2023-05-25T23:59:16.730Z,52093.04
